createdAt,value
2019-05-17T00:00:23.832Z,140.32
2019-05-17T00:02:51.261Z,138.15
2019-05-17T00:05:18.339Z,139.57
2019-05-17T00:07:47.453Z,138.50
2019-05-17T00:10:17.021Z,138.40
2019-05-17T00:12:43.651Z,138.68
2019-05-17T00:15:11.084Z,138.90
2019-05-17T00:17:38.219Z,137.90
2019-05-17T00:20:06.271Z,139.00
2019-05-17T00:22:36.399Z,140.68
2019-05-17T00:25:03.554Z,138.72
2019-05-17T00:27:32.615Z,138.62
2019-05-17T00:29:59.637Z,138.12
2019-05-17T00:32:27.502Z,137.20
2019-05-17T00:34:56.417Z,138.72
2019-05-17T00:37:23.586Z,139.85
2019-05-17T00:39:50.766Z,139.95
2019-05-17T00:42:17.884Z,139.60
2019-05-17T00:44:47.177Z,138.55
2019-05-17T00:47:17.053Z,139.35
2019-05-17T00:49:46.350Z,136.72
2019-05-17T00:52:13.259Z,137.95
2019-05-17T00:54:40.310Z,136.97
2019-05-17T00:57:07.654Z,137.12
2019-05-17T00:59:36.763Z,137.32
2019-05-17T01:02:04.174Z,136.28
2019-05-17T01:04:31.576Z,137.37
2019-05-17T01:06:58.666Z,138.77
2019-05-17T01:09:27.341Z,139.18
2019-05-17T01:11:56.542Z,137.80
2019-05-17T01:14:23.382Z,137.65
2019-05-17T01:16:50.659Z,137.60
2019-05-17T01:19:17.734Z,138.15
2019-05-17T01:21:47.285Z,136.88
2019-05-17T01:24:17.099Z,136.22
2019-05-17T01:26:43.918Z,138.25
2019-05-17T01:29:10.951Z,139.68
2019-05-17T01:31:37.980Z,139.30
2019-05-17T01:34:07.143Z,137.80
2019-05-17T01:36:33.985Z,138.82
2019-05-17T01:39:13.178Z,138.00
2019-05-17T01:41:32.227Z,139.52
2019-05-17T01:43:59.235Z,139.62
2019-05-17T01:46:27.354Z,139.88
2019-05-17T01:48:54.464Z,138.32
2019-05-17T01:51:21.528Z,140.05
2019-05-17T01:53:48.767Z,138.97
2019-05-17T01:56:16.938Z,139.82
2019-05-17T01:58:44.082Z,140.00
2019-05-17T02:01:11.255Z,139.07
2019-05-17T02:03:38.319Z,140.05
2019-05-17T02:06:07.523Z,139.00
2019-05-17T02:08:37.043Z,139.47
2019-05-17T02:11:03.902Z,140.90
2019-05-17T02:13:32.088Z,139.00
2019-05-17T02:15:59.118Z,138.97
2019-05-17T02:18:26.709Z,139.80
2019-05-17T02:20:53.861Z,138.52
2019-05-17T02:23:22.019Z,139.57
2019-05-17T02:25:49.102Z,141.60
2019-05-17T02:28:17.337Z,141.20
2019-05-17T02:30:45.100Z,139.03
2019-05-17T02:33:12.808Z,138.35
2019-05-17T02:35:42.939Z,138.80
2019-05-17T02:38:09.426Z,140.95
2019-05-17T02:40:43.081Z,140.28
2019-05-17T02:43:13.007Z,139.65
2019-05-17T02:45:38.622Z,140.20
2019-05-17T02:48:06.890Z,140.35
2019-05-17T02:50:35.039Z,139.45
2019-05-17T02:53:04.313Z,140.52
2019-05-17T02:55:32.776Z,138.90
2019-05-17T02:58:02.570Z,140.50
2019-05-17T03:00:28.938Z,141.75
2019-05-17T03:02:57.172Z,139.95
2019-05-17T03:05:24.230Z,138.43
2019-05-17T03:07:52.809Z,141.20
2019-05-17T03:10:25.138Z,139.57
2019-05-17T03:12:49.061Z,139.68
2019-05-17T03:15:16.307Z,138.35
2019-05-17T03:17:43.962Z,139.55
2019-05-17T03:20:13.185Z,138.47
2019-05-17T03:22:43.786Z,137.52
2019-05-17T03:25:13.222Z,138.85
2019-05-17T03:27:38.695Z,137.62
2019-05-17T03:30:06.867Z,138.90
2019-05-17T03:32:36.519Z,138.47
2019-05-17T03:35:07.181Z,139.92
2019-05-17T03:37:38.027Z,138.97
2019-05-17T03:40:21.684Z,137.82
2019-05-17T03:42:33.914Z,138.10
2019-05-17T03:45:02.874Z,138.85
2019-05-17T03:47:33.180Z,140.03
2019-05-17T03:49:58.965Z,137.88
2019-05-17T03:52:27.026Z,140.20
2019-05-17T03:54:55.154Z,138.65
2019-05-17T03:57:23.913Z,139.35
2019-05-17T03:59:52.484Z,139.80
2019-05-17T04:02:22.840Z,143.72
2019-05-17T04:04:49.074Z,139.45
2019-05-17T04:07:16.192Z,137.97
2019-05-17T04:09:43.827Z,140.05
2019-05-17T04:12:13.656Z,138.20
2019-05-17T04:14:42.971Z,136.77
2019-05-17T04:17:08.989Z,139.80
2019-05-17T04:19:36.072Z,138.75
2019-05-17T04:22:03.745Z,139.68
2019-05-17T04:24:32.367Z,139.20
2019-05-17T04:27:03.182Z,140.97
2019-05-17T04:29:29.080Z,139.20
2019-05-17T04:31:56.098Z,137.18
2019-05-17T04:34:23.143Z,140.65
2019-05-17T04:36:52.271Z,139.10
2019-05-17T04:39:22.627Z,139.00
2019-05-17T04:41:51.115Z,139.72
2019-05-17T04:44:18.476Z,140.25
2019-05-17T04:46:49.355Z,140.88
2019-05-17T04:49:16.529Z,139.37
2019-05-17T04:51:52.398Z,139.97
2019-05-17T04:54:22.754Z,140.07
2019-05-17T04:56:52.880Z,142.37
2019-05-17T04:59:23.992Z,142.18
2019-05-17T05:01:49.754Z,140.95
2019-05-17T05:04:16.850Z,142.13
2019-05-17T05:06:45.755Z,143.22
2019-05-17T05:09:13.004Z,143.68
2019-05-17T05:11:55.649Z,143.52
2019-05-17T05:14:09.298Z,142.47
2019-05-17T05:16:36.366Z,142.93
2019-05-17T05:19:03.514Z,142.30
2019-05-17T05:21:32.317Z,141.35
2019-05-17T05:23:59.682Z,140.88
2019-05-17T05:26:28.549Z,141.20
2019-05-17T05:28:55.608Z,141.70
2019-05-17T05:31:25.781Z,140.60
2019-05-17T05:33:56.966Z,140.70
2019-05-17T05:36:24.044Z,139.20
2019-05-17T05:38:51.581Z,140.77
2019-05-17T05:41:18.815Z,139.82
2019-05-17T05:43:45.886Z,141.85
2019-05-17T05:46:14.748Z,142.47
2019-05-17T05:48:41.818Z,141.05
2019-05-17T05:51:13.414Z,142.72
2019-05-17T05:53:52.166Z,141.57
2019-05-17T05:56:43.862Z,141.45
2019-05-17T05:59:12.306Z,143.30
2019-05-17T06:01:42.145Z,143.10
2019-05-17T06:04:11.608Z,141.53
2019-05-17T06:06:38.537Z,142.15
2019-05-17T06:09:11.841Z,143.25
2019-05-17T06:11:38.653Z,142.55
2019-05-17T06:14:05.707Z,141.85
2019-05-17T06:16:32.756Z,144.35
2019-05-17T06:19:02.387Z,146.93
2019-05-17T06:21:31.799Z,145.43
2019-05-17T06:23:58.524Z,145.10
2019-05-17T06:26:25.576Z,143.55
2019-05-17T06:28:52.743Z,148.30
2019-05-17T06:31:20.065Z,144.28
2019-05-17T06:33:47.114Z,142.68
2019-05-17T06:36:14.200Z,143.02
2019-05-17T06:38:42.030Z,142.80
2019-05-17T06:41:09.223Z,145.32
2019-05-17T06:43:38.474Z,143.50
2019-05-17T06:46:05.296Z,144.35
2019-05-17T06:48:32.395Z,143.47
2019-05-17T06:50:59.424Z,143.30
2019-05-17T06:53:28.786Z,144.72
2019-05-17T06:55:55.874Z,145.45
2019-05-17T06:58:22.959Z,146.47
2019-05-17T07:00:50.025Z,146.85
2019-05-17T07:03:17.108Z,145.47
2019-05-17T07:05:46.268Z,143.22
2019-05-17T07:08:15.357Z,144.70
2019-05-17T07:10:42.456Z,145.80
2019-05-17T07:13:10.603Z,147.07
2019-05-17T07:15:46.916Z,146.62
2019-05-17T07:18:10.029Z,145.92
2019-05-17T07:20:36.455Z,147.55
2019-05-17T07:23:04.748Z,146.62
2019-05-17T07:25:33.183Z,146.82
2019-05-17T07:28:00.583Z,146.55
2019-05-17T07:30:30.413Z,147.50
2019-05-17T07:33:00.401Z,144.93
2019-05-17T07:35:29.895Z,145.57
2019-05-17T07:37:59.383Z,146.28
2019-05-17T07:40:26.152Z,146.53
2019-05-17T07:43:06.916Z,146.55
2019-05-17T07:45:24.089Z,146.30
2019-05-17T07:47:54.162Z,147.90
2019-05-17T07:50:21.598Z,146.90
2019-05-17T07:52:52.881Z,145.90
2019-05-17T07:55:22.844Z,148.30
2019-05-17T07:57:50.216Z,147.00
2019-05-17T08:00:20.109Z,148.55
2019-05-17T08:02:50.329Z,147.28
2019-05-17T08:05:16.924Z,148.17
2019-05-17T08:07:44.408Z,148.45
2019-05-17T08:10:11.759Z,149.10
2019-05-17T08:12:40.517Z,149.75
2019-05-17T08:15:10.703Z,150.20
2019-05-17T08:17:39.723Z,152.00
2019-05-17T08:20:09.872Z,150.10
2019-05-17T08:22:36.484Z,151.15
2019-05-17T08:25:04.891Z,150.68
2019-05-17T08:27:31.919Z,151.27
2019-05-17T08:29:59.604Z,151.80
2019-05-17T08:32:32.914Z,152.02
2019-05-17T08:35:00.573Z,153.07
2019-05-17T08:37:30.200Z,153.00
2019-05-17T08:39:57.030Z,153.97
2019-05-17T08:42:24.180Z,155.60
2019-05-17T08:44:51.246Z,152.62
2019-05-17T08:47:20.913Z,155.52
2019-05-17T08:49:49.675Z,152.25
2019-05-17T08:52:17.003Z,152.85
2019-05-17T08:54:44.369Z,153.82
2019-05-17T08:57:11.792Z,153.38
2019-05-17T08:59:40.456Z,152.95
2019-05-17T09:02:10.905Z,151.72
2019-05-17T09:04:40.352Z,152.15
2019-05-17T09:07:09.357Z,154.35
2019-05-17T09:09:36.303Z,153.47
2019-05-17T09:12:03.644Z,153.00
2019-05-17T09:14:30.744Z,154.50
2019-05-17T09:17:00.425Z,152.10
2019-05-17T09:19:27.202Z,152.12
2019-05-17T09:21:55.142Z,152.12
2019-05-17T09:24:24.592Z,153.12
2019-05-17T09:26:51.654Z,153.00
2019-05-17T09:29:20.073Z,151.65
2019-05-17T09:31:51.870Z,153.15
2019-05-17T09:34:21.446Z,152.35
2019-05-17T09:36:49.677Z,154.25
2019-05-17T09:39:17.094Z,152.17
2019-05-17T09:41:44.147Z,151.32
2019-05-17T09:44:15.793Z,151.30
2019-05-17T09:46:40.208Z,151.80
2019-05-17T09:49:10.183Z,152.20
2019-05-17T09:51:39.611Z,151.55
2019-05-17T09:54:07.069Z,151.68
2019-05-17T09:56:34.182Z,151.25
2019-05-17T09:59:01.244Z,150.82
2019-05-17T10:01:30.318Z,151.35
2019-05-17T10:03:59.720Z,151.63
2019-05-17T10:06:26.829Z,149.25
2019-05-17T10:08:55.259Z,151.15
2019-05-17T10:11:22.386Z,148.75
2019-05-17T10:13:50.008Z,148.30
2019-05-17T10:16:20.307Z,147.55
2019-05-17T10:18:47.594Z,147.53
2019-05-17T10:21:15.809Z,147.82
2019-05-17T10:23:42.991Z,149.97
2019-05-17T10:26:10.397Z,150.07
2019-05-17T10:28:39.989Z,149.35
2019-05-17T10:31:10.763Z,150.45
2019-05-17T10:33:36.462Z,150.15
2019-05-17T10:36:03.539Z,150.62
2019-05-17T10:38:31.721Z,149.57
2019-05-17T10:40:58.747Z,150.72
2019-05-17T10:43:25.827Z,150.12
2019-05-17T10:45:54.105Z,150.15
2019-05-17T10:48:21.377Z,149.80
2019-05-17T10:50:49.638Z,150.62
2019-05-17T10:53:17.079Z,149.95
2019-05-17T10:55:44.496Z,149.95
2019-05-17T10:58:11.565Z,147.93
2019-05-17T11:00:41.360Z,148.53
2019-05-17T11:03:09.789Z,149.42
2019-05-17T11:05:40.278Z,149.10
2019-05-17T11:08:07.476Z,149.20
2019-05-17T11:10:34.554Z,150.40
2019-05-17T11:13:01.750Z,150.03
2019-05-17T11:15:31.057Z,148.53
2019-05-17T11:17:58.297Z,154.12
2019-05-17T11:20:25.807Z,155.67
2019-05-17T11:22:53.030Z,153.07
2019-05-17T11:25:20.209Z,152.32
2019-05-17T11:27:47.356Z,151.57
2019-05-17T11:30:15.188Z,149.62
2019-05-17T11:32:42.493Z,148.20
2019-05-17T11:35:09.903Z,151.02
2019-05-17T11:37:36.931Z,151.65
2019-05-17T11:40:08.033Z,148.45
2019-05-17T11:42:33.775Z,149.87
2019-05-17T11:45:01.372Z,151.32
2019-05-17T11:47:28.543Z,150.75
2019-05-17T11:49:57.262Z,151.05
2019-05-17T11:52:27.053Z,150.68
2019-05-17T11:54:56.777Z,152.00
2019-05-17T11:57:25.080Z,151.55
2019-05-17T11:59:52.108Z,150.27
2019-05-17T12:02:21.457Z,149.35
2019-05-17T12:04:48.125Z,149.42
2019-05-17T12:07:16.406Z,147.75
2019-05-17T12:09:43.544Z,145.65
2019-05-17T12:12:10.656Z,148.10
2019-05-17T12:14:39.609Z,147.50
2019-05-17T12:17:06.653Z,148.97
2019-05-17T12:19:36.933Z,149.18
2019-05-17T12:22:03.147Z,149.38
2019-05-17T12:24:30.590Z,146.87
2019-05-17T12:26:57.662Z,148.00
2019-05-17T12:29:26.525Z,148.00
2019-05-17T12:31:53.648Z,146.32
2019-05-17T12:34:20.750Z,149.75
2019-05-17T12:36:48.038Z,148.22
2019-05-17T12:39:16.973Z,146.05
2019-05-17T12:41:44.133Z,148.47
2019-05-17T12:44:11.168Z,147.35
2019-05-17T12:46:38.258Z,149.70
2019-05-17T12:49:05.386Z,148.40
2019-05-17T12:51:33.101Z,150.07
2019-05-17T12:54:00.446Z,149.82
2019-05-17T12:56:27.612Z,150.20
2019-05-17T12:58:54.677Z,150.57
2019-05-17T13:01:21.899Z,149.87
2019-05-17T13:03:49.028Z,148.97
2019-05-17T13:06:16.111Z,152.80
2019-05-17T13:08:43.221Z,150.35
2019-05-17T13:11:10.308Z,152.75
2019-05-17T13:13:37.597Z,152.27
2019-05-17T13:16:17.446Z,154.68
2019-05-17T13:18:33.948Z,154.30
2019-05-17T13:21:01.020Z,155.20
2019-05-17T13:23:28.116Z,155.35
2019-05-17T13:26:03.003Z,153.40
2019-05-17T13:28:42.316Z,153.75
2019-05-17T13:31:12.287Z,152.43
2019-05-17T13:33:39.507Z,149.45
2019-05-17T13:36:06.582Z,148.35
2019-05-17T13:38:33.711Z,151.97
2019-05-17T13:41:00.728Z,150.35
2019-05-17T13:43:27.946Z,152.68
2019-05-17T13:45:55.011Z,153.25
2019-05-17T13:48:22.251Z,152.78
2019-05-17T13:50:52.111Z,152.97
2019-05-17T13:53:18.656Z,153.78
2019-05-17T13:55:45.911Z,154.03
2019-05-17T13:58:13.103Z,154.03
2019-05-17T14:00:42.037Z,153.32
2019-05-17T14:03:10.277Z,152.43
2019-05-17T14:05:37.483Z,154.05
2019-05-17T14:08:06.718Z,153.05
2019-05-17T14:10:33.911Z,153.20
2019-05-17T14:13:01.108Z,149.80
2019-05-17T14:15:29.455Z,152.80
2019-05-17T14:17:57.698Z,150.80
2019-05-17T14:20:25.138Z,149.57
2019-05-17T14:22:52.454Z,151.37
2019-05-17T14:25:22.235Z,151.55
2019-05-17T14:27:49.313Z,151.65
2019-05-17T14:30:16.626Z,149.20
2019-05-17T14:32:45.951Z,153.02
2019-05-17T14:35:15.173Z,149.30
2019-05-17T14:37:42.365Z,150.42
2019-05-17T14:40:12.994Z,150.38
2019-05-17T14:42:41.931Z,150.40
2019-05-17T14:45:09.087Z,149.87
2019-05-17T14:47:38.872Z,150.10
2019-05-17T14:50:09.115Z,150.27
2019-05-17T14:52:36.357Z,151.97
2019-05-17T14:55:03.881Z,151.00
2019-05-17T14:57:31.274Z,151.42
2019-05-17T14:59:58.368Z,149.38
2019-05-17T15:02:27.558Z,152.60
2019-05-17T15:05:00.170Z,149.72
2019-05-17T15:07:39.012Z,150.27
2019-05-17T15:10:08.921Z,149.93
2019-05-17T15:12:36.164Z,149.32
2019-05-17T15:15:03.918Z,149.85
2019-05-17T15:17:34.903Z,149.95
2019-05-17T15:20:00.188Z,150.15
2019-05-17T15:22:28.373Z,152.78
2019-05-17T15:24:55.467Z,152.62
2019-05-17T15:27:24.421Z,154.55
2019-05-17T15:29:51.629Z,155.93
2019-05-17T15:32:19.448Z,155.40
2019-05-17T15:34:51.701Z,152.75
2019-05-17T15:37:19.239Z,152.78
2019-05-17T15:39:46.619Z,154.05
2019-05-17T15:42:14.164Z,154.80
2019-05-17T15:44:41.374Z,153.87
2019-05-17T15:47:08.404Z,153.75
2019-05-17T15:49:35.462Z,155.20
2019-05-17T15:52:02.692Z,155.00
2019-05-17T15:54:29.985Z,154.63
2019-05-17T15:56:57.088Z,153.00
2019-05-17T15:59:24.196Z,154.23
2019-05-17T16:01:51.347Z,154.23
2019-05-17T16:04:18.566Z,153.10
2019-05-17T16:06:45.785Z,154.50
2019-05-17T16:09:12.851Z,151.20
2019-05-17T16:11:42.728Z,152.00
2019-05-17T16:14:10.189Z,152.05
2019-05-17T16:16:37.278Z,150.50
2019-05-17T16:19:04.367Z,151.22
2019-05-17T16:21:31.415Z,150.10
2019-05-17T16:23:58.493Z,151.10
2019-05-17T16:26:25.612Z,151.55
2019-05-17T16:28:52.797Z,153.12
2019-05-17T16:31:20.309Z,153.85
2019-05-17T16:33:50.983Z,151.82
2019-05-17T16:36:18.475Z,151.15
2019-05-17T16:38:45.603Z,151.60
2019-05-17T16:41:14.155Z,153.38
2019-05-17T16:43:41.328Z,151.57
2019-05-17T16:46:10.776Z,151.93
2019-05-17T16:48:37.936Z,152.07
2019-05-17T16:51:07.429Z,154.30
2019-05-17T16:53:34.549Z,153.27
2019-05-17T16:56:01.624Z,153.35
2019-05-17T16:58:31.073Z,152.55
2019-05-17T17:01:03.475Z,151.85
2019-05-17T17:03:43.295Z,151.97
2019-05-17T17:05:58.362Z,152.00
2019-05-17T17:08:25.492Z,155.12
2019-05-17T17:10:52.595Z,151.50
2019-05-17T17:13:32.756Z,150.25
2019-05-17T17:15:53.792Z,151.07
2019-05-17T17:18:22.483Z,150.35
2019-05-17T17:20:53.885Z,150.05
2019-05-17T17:23:28.037Z,149.93
2019-05-17T17:25:55.330Z,149.23
2019-05-17T17:28:25.919Z,149.18
2019-05-17T17:30:53.431Z,148.38
2019-05-17T17:33:20.577Z,150.00
2019-05-17T17:35:48.206Z,148.38
2019-05-17T17:38:18.433Z,151.75
2019-05-17T17:40:47.553Z,151.82
2019-05-17T17:43:16.219Z,149.20
2019-05-17T17:45:50.275Z,151.02
2019-05-17T17:48:19.766Z,149.77
2019-05-17T17:50:49.073Z,149.12
2019-05-17T17:53:20.142Z,149.77
2019-05-17T17:55:48.568Z,148.53
2019-05-17T17:58:57.011Z,152.55
2019-05-17T18:01:57.041Z,148.97
2019-05-17T18:04:28.450Z,149.57
2019-05-17T18:07:03.318Z,149.75
2019-05-17T18:09:33.452Z,151.40
2019-05-17T18:12:05.872Z,149.50
2019-05-17T18:14:38.006Z,148.17
2019-05-17T18:17:11.971Z,149.00
2019-05-17T18:19:44.609Z,147.98
2019-05-17T18:22:16.925Z,147.35
2019-05-17T18:24:46.742Z,148.22
2019-05-17T18:27:18.638Z,146.82
2019-05-17T18:29:49.470Z,148.05
2019-05-17T18:32:21.447Z,147.13
2019-05-17T18:34:54.316Z,149.60
2019-05-17T18:37:27.676Z,149.53
2019-05-17T18:40:03.203Z,149.05
2019-05-17T18:42:33.024Z,149.02
2019-05-17T18:45:08.839Z,152.68
2019-05-17T18:47:36.696Z,149.38
2019-05-17T18:50:10.695Z,148.50
2019-05-17T18:52:44.226Z,146.50
2019-05-17T18:55:14.812Z,147.22
2019-05-17T18:57:57.127Z,149.05
2019-05-17T19:00:25.784Z,150.90
2019-05-17T19:03:04.886Z,148.78
2019-05-17T19:05:40.456Z,147.80
2019-05-17T19:08:09.690Z,147.30
2019-05-17T19:10:40.960Z,147.47
2019-05-17T19:13:11.180Z,146.00
2019-05-17T19:15:41.589Z,146.57
2019-05-17T19:18:26.054Z,146.82
2019-05-17T19:20:56.507Z,147.82
2019-05-17T19:23:26.011Z,147.02
2019-05-17T19:25:56.051Z,146.07
2019-05-17T19:28:23.742Z,146.20
2019-05-17T19:30:54.007Z,147.68
2019-05-17T19:33:22.505Z,145.92
2019-05-17T19:35:56.754Z,146.37
2019-05-17T19:38:25.199Z,144.25
2019-05-17T19:41:02.699Z,146.22
2019-05-17T19:43:31.927Z,148.78
2019-05-17T19:46:15.973Z,148.55
2019-05-17T19:48:43.211Z,147.30
2019-05-17T19:51:10.574Z,146.57
2019-05-17T19:53:37.772Z,144.22
2019-05-17T19:56:07.863Z,145.20
2019-05-17T19:58:41.267Z,148.13
2019-05-17T20:01:08.663Z,145.30
2019-05-17T20:03:38.174Z,145.90
2019-05-17T20:06:05.562Z,145.53
2019-05-17T20:08:35.497Z,143.87
2019-05-17T20:11:02.850Z,144.70
2019-05-17T20:13:32.194Z,145.68
2019-05-17T20:16:01.523Z,144.80
2019-05-17T20:18:29.988Z,145.22
2019-05-17T20:20:58.264Z,146.32
2019-05-17T20:23:25.465Z,144.30
2019-05-17T20:25:52.643Z,144.80
2019-05-17T20:28:28.021Z,146.07
2019-05-17T20:31:13.709Z,144.82
2019-05-17T20:33:59.060Z,143.97
2019-05-17T20:36:42.757Z,144.17
2019-05-17T20:39:22.402Z,144.20
2019-05-17T20:42:14.007Z,144.97
2019-05-17T20:45:52.596Z,144.55
2019-05-17T20:48:30.064Z,143.70
2019-05-17T20:50:57.620Z,145.97
2019-05-17T20:53:25.834Z,145.90
2019-05-17T20:55:52.975Z,144.77
2019-05-17T20:58:20.151Z,145.53
2019-05-17T21:00:47.223Z,144.57
2019-05-17T21:03:16.819Z,144.02
2019-05-17T21:05:43.895Z,148.32
2019-05-17T21:08:13.514Z,145.10
2019-05-17T21:10:40.651Z,143.87
2019-05-17T21:13:09.100Z,146.85
2019-05-17T21:15:47.386Z,143.75
2019-05-17T21:18:09.752Z,144.07
2019-05-17T21:20:38.747Z,149.57
2019-05-17T21:23:06.045Z,148.62
2019-05-17T21:25:35.028Z,149.93
2019-05-17T21:28:05.476Z,146.53
2019-05-17T21:30:32.632Z,148.13
2019-05-17T21:33:01.801Z,144.37
2019-05-17T21:35:28.891Z,144.10
2019-05-17T21:37:56.025Z,142.22
2019-05-17T21:40:23.325Z,142.57
2019-05-17T21:42:50.411Z,143.02
2019-05-17T21:45:17.866Z,143.60
2019-05-17T21:47:45.254Z,144.43
2019-05-17T21:50:12.579Z,142.75
2019-05-17T21:52:39.706Z,143.20
2019-05-17T21:55:07.424Z,141.50
2019-05-17T21:57:34.468Z,142.05
2019-05-17T22:00:03.727Z,141.30
2019-05-17T22:02:32.727Z,140.62
2019-05-17T22:05:02.269Z,142.10
2019-05-17T22:07:29.380Z,142.10
2019-05-17T22:09:56.572Z,141.70
2019-05-17T22:12:23.669Z,142.68
2019-05-17T22:14:50.846Z,142.35
2019-05-17T22:17:19.912Z,142.32
2019-05-17T22:19:49.343Z,142.98
2019-05-17T22:22:16.795Z,141.15
2019-05-17T22:24:46.539Z,140.75
2019-05-17T22:27:15.487Z,142.95
2019-05-17T22:29:42.627Z,140.68
2019-05-17T22:32:09.783Z,142.15
2019-05-17T22:34:36.946Z,140.22
2019-05-17T22:37:04.316Z,139.95
2019-05-17T22:39:31.441Z,140.62
2019-05-17T22:41:58.586Z,139.55
2019-05-17T22:44:25.669Z,140.47
2019-05-17T22:46:52.758Z,139.77
2019-05-17T22:49:19.844Z,140.92
2019-05-17T22:51:47.056Z,140.35
2019-05-17T22:54:14.106Z,143.40
2019-05-17T22:56:41.208Z,140.32
2019-05-17T22:59:08.313Z,140.05
2019-05-17T23:01:35.783Z,141.07
2019-05-17T23:04:02.892Z,141.95
2019-05-17T23:06:30.112Z,140.32
2019-05-17T23:08:57.224Z,140.80
2019-05-17T23:11:24.520Z,140.00
2019-05-17T23:13:51.924Z,139.68
2019-05-17T23:16:20.317Z,139.82
2019-05-17T23:19:09.032Z,140.07
2019-05-17T23:21:38.409Z,140.68
2019-05-17T23:24:06.144Z,139.10
2019-05-17T23:26:33.350Z,139.22
2019-05-17T23:29:00.856Z,140.05
2019-05-17T23:31:27.945Z,139.03
2019-05-17T23:33:55.027Z,139.32
2019-05-17T23:36:22.115Z,139.92
2019-05-17T23:38:49.187Z,140.57
2019-05-17T23:41:16.250Z,138.82
2019-05-17T23:43:43.311Z,139.60
2019-05-17T23:46:10.380Z,139.47
2019-05-17T23:48:37.470Z,140.12
2019-05-17T23:51:04.510Z,140.52
2019-05-17T23:53:32.775Z,140.77
2019-05-17T23:55:59.834Z,140.52
2019-05-17T23:58:26.958Z,140.28
